Time;durP1;ratioP1;P1;durP2;ratioP2;P2;SDS_P1;SDS_P2;PMS_P1;PMS_P2;Temp;Humidity;BMP_temperature;BMP_pressure;BME280_temperature;BME280_humidity;BME280_pressure;Samples;Min_cycle;Max_cycle;Signal;HPM_P1;HPM_P2
2022/12/11 00:01:29;;;;;;;44.08;32.40;;;;;;;8.24;91.49;99090.48;1598963;88;21169;-75
2022/12/11 00:03:56;;;;;;;38.83;30.05;;;;;;;8.25;91.46;99092.97;1588567;88;21462;-72
2022/12/11 00:06:22;;;;;;;37.70;27.98;;;;;;;8.25;91.42;99095.59;1569827;89;22673;-73
2022/12/11 00:08:53;;;;;;;37.53;28.90;;;;;;;8.25;91.42;99077.19;1585541;87;21074;-73
2022/12/11 00:11:21;;;;;;;38.90;29.18;;;;;;;8.26;91.38;99076.70;1574800;88;22418;-75
2022/12/11 00:13:48;;;;;;;40.48;28.55;;;;;;;8.26;91.34;99076.70;1563682;90;21183;-73
2022/12/11 00:16:14;;;;;;;37.95;28.50;;;;;;;8.24;91.32;99082.10;1568441;89;21108;-77
2022/12/11 00:18:41;;;;;;;36.42;27.25;;;;;;;8.24;91.33;99077.33;1549552;90;22399;-73
2022/12/11 00:21:11;;;;;;;34.95;26.77;;;;;;;8.24;91.29;99079.95;1610246;88;21105;-73
2022/12/11 00:23:38;;;;;;;33.80;25.77;;;;;;;8.23;91.28;99088.34;1571890;88;21393;-76
2022/12/11 00:26:08;;;;;;;35.60;24.02;;;;;;;8.22;91.27;99082.73;1547313;90;21143;-73
2022/12/11 00:28:35;;;;;;;34.08;24.87;;;;;;;8.23;91.31;99090.14;1572776;89;20980;-73
2022/12/11 00:31:10;;;;;;;31.05;23.47;;;;;;;8.23;91.35;99087.02;1574619;89;21867;-74
2022/12/11 00:33:38;;;;;;;31.17;23.95;;;;;;;8.26;91.41;99099.06;1572279;90;21032;-73
2022/12/11 00:36:18;;;;;;;30.92;23.40;;;;;;;8.25;91.39;99095.59;1572585;88;21078;-74
2022/12/11 00:38:45;;;;;;;31.23;22.73;;;;;;;8.24;91.38;99088.68;1575371;89;21555;-73
2022/12/11 00:41:12;;;;;;;33.60;23.67;;;;;;;8.26;91.43;99092.48;1583693;89;21056;-73
2022/12/11 00:43:38;;;;;;;34.83;24.75;;;;;;;8.26;91.44;99085.91;1576933;88;21842;-73
2022/12/11 00:46:05;;;;;;;33.05;24.02;;;;;;;8.27;91.48;99078.36;1561770;90;21051;-72
2022/12/11 00:48:31;;;;;;;37.28;24.45;;;;;;;8.27;91.49;99070.47;1577242;89;21344;-72
2022/12/11 00:50:58;;;;;;;39.30;27.15;;;;;;;8.27;91.49;99056.83;1578290;88;21128;-74
2022/12/11 00:53:24;;;;;;;43.35;28.35;;;;;;;8.27;91.49;99050.25;1574413;89;21119;-72
2022/12/11 00:55:51;;;;;;;42.45;28.87;;;;;;;8.27;91.50;99059.94;1574593;89;21834;-72
2022/12/11 00:58:17;;;;;;;40.55;28.07;;;;;;;8.28;91.59;99061.11;1584443;88;21151;-73
2022/12/11 01:00:44;;;;;;;37.85;27.40;;;;;;;8.28;91.61;99058.97;1585325;88;21322;-72
2022/12/11 01:03:12;;;;;;;37.93;28.05;;;;;;;8.28;91.59;99063.74;1564049;89;21565;-72
2022/12/11 01:05:39;;;;;;;37.03;27.67;;;;;;;8.28;91.55;99061.59;1583398;90;21118;-72
2022/12/11 01:08:05;;;;;;;38.88;26.73;;;;;;;8.27;91.59;99057.31;1599395;88;21912;-73
2022/12/11 01:10:32;;;;;;;43.28;27.50;;;;;;;8.26;91.57;99054.34;1602973;88;21117;-73
2022/12/11 01:13:04;;;;;;;43.58;27.90;;;;;;;8.25;91.53;99051.37;1556189;90;21129;-73
2022/12/11 01:15:39;;;;;;;47.62;28.42;;;;;;;8.26;91.56;99050.39;1547100;90;21123;-73
2022/12/11 01:18:06;;;;;;;38.75;27.13;;;;;;;8.25;91.60;99044.79;1595194;88;21038;-73
2022/12/11 01:20:33;;;;;;;41.28;26.35;;;;;;;8.23;91.61;99044.94;1564242;89;21874;-73
2022/12/11 01:22:59;;;;;;;43.92;26.65;;;;;;;8.23;91.65;99039.67;1565724;90;21198;-73
2022/12/11 01:25:26;;;;;;;44.08;26.30;;;;;;;8.23;91.68;99041.47;1569763;89;21178;-73
2022/12/11 01:27:54;;;;;;;47.13;30.52;;;;;;;8.22;91.65;99034.07;1604081;88;21624;-73
2022/12/11 01:30:23;;;;;;;44.60;26.82;;;;;;;8.21;91.69;99031.09;1597160;88;22088;-79
2022/12/11 01:32:49;;;;;;;48.90;28.35;;;;;;;8.23;91.70;99038.84;1589312;88;22640;-73
2022/12/11 01:35:16;;;;;;;58.08;33.73;;;;;;;8.22;91.68;99030.61;1597418;88;21441;-78
2022/12/11 01:37:43;;;;;;;68.28;34.98;;;;;;;8.22;91.65;99035.88;1603435;88;21063;-72
2022/12/11 01:40:13;;;;;;;61.08;35.00;;;;;;;8.20;91.64;99035.16;1591298;88;21021;-73
2022/12/11 01:42:42;;;;;;;56.45;31.35;;;;;;;8.18;91.63;99027.89;1582758;88;21087;-73
2022/12/11 01:45:38;;;;;;;66.40;34.18;;;;;;;8.18;91.66;99032.67;1575206;89;21814;-72
2022/12/11 01:48:11;;;;;;;88.45;42.88;;;;;;;8.17;91.63;99023.61;1565925;89;21153;-73
2022/12/11 01:50:53;;;;;;;83.85;40.28;;;;;;;8.16;91.65;99026.73;1601565;88;21363;-72
2022/12/11 01:53:28;;;;;;;78.67;42.50;;;;;;;8.14;91.66;99033.93;1575905;88;21033;-72
2022/12/11 01:55:55;;;;;;;70.17;39.53;;;;;;;8.12;91.67;99026.67;1553880;90;21004;-72
2022/12/11 01:58:23;;;;;;;67.97;39.20;;;;;;;8.11;91.67;99038.16;1523911;88;21906;-76
2022/12/11 02:00:50;;;;;;;64.53;37.20;;;;;;;8.11;91.67;99034.70;1563499;90;21617;-72
2022/12/11 02:03:17;;;;;;;60.75;36.00;;;;;;;8.08;91.73;99033.64;1576034;89;21760;-72
2022/12/11 02:05:43;;;;;;;58.98;33.98;;;;;;;8.09;91.82;99034.81;1575779;88;21103;-72
2022/12/11 02:08:10;;;;;;;60.00;33.88;;;;;;;8.11;91.95;99038.65;1571706;89;21084;-72
2022/12/11 02:11:15;;;;;;;51.40;30.68;;;;;;;8.14;92.05;99027.84;1601158;88;22433;-72
2022/12/11 02:13:51;;;;;;;52.17;28.30;;;;;;;8.16;92.15;99028.53;1562948;88;20952;-74
2022/12/11 02:16:27;;;;;;;51.02;30.05;;;;;;;8.18;92.28;99018.20;1582277;88;21002;-72
2022/12/11 02:19:11;;;;;;;51.40;29.52;;;;;;;8.20;92.36;99013.66;1602500;88;22683;-71
2022/12/11 02:21:41;;;;;;;45.33;28.65;;;;;;;8.23;92.42;99004.16;1584982;88;21061;-72
2022/12/11 02:24:33;;;;;;;47.55;30.88;;;;;;;8.23;92.47;99006.80;1615437;88;22694;-71
2022/12/11 02:27:43;;;;;;;56.28;33.00;;;;;;;8.25;92.47;99009.28;1579651;88;21048;-71
2022/12/11 02:30:12;;;;;;;54.98;33.00;;;;;;;8.27;92.50;99002.07;1601067;88;21628;-71
2022/12/11 02:32:46;;;;;;;67.75;34.27;;;;;;;8.27;92.55;98994.18;1579760;88;22621;-71
2022/12/11 02:35:21;;;;;;;67.62;35.50;;;;;;;8.27;92.58;98988.43;1599424;88;21097;-71
2022/12/11 02:37:49;;;;;;;68.80;38.42;;;;;;;8.30;92.59;98980.77;1579432;89;22480;-75
2022/12/11 02:40:18;;;;;;;87.97;37.75;;;;;;;8.30;92.58;98979.45;1582105;88;21036;-71
2022/12/11 02:42:46;;;;;;;92.25;36.80;;;;;;;8.30;92.53;98981.59;1600684;88;21111;-71
2022/12/11 02:45:13;;;;;;;85.30;35.52;;;;;;;8.31;92.51;98965.33;1590224;89;22387;-71
2022/12/11 02:47:39;;;;;;;113.50;33.73;;;;;;;8.31;92.45;98960.06;1593958;87;21543;-71
2022/12/11 02:50:09;;;;;;;121.70;31.77;;;;;;;8.30;92.40;98954.46;1585558;88;21697;-72
2022/12/11 02:52:36;;;;;;;101.20;27.85;;;;;;;8.28;92.36;98957.69;1590972;89;21136;-71
2022/12/11 02:55:02;;;;;;;103.80;25.10;;;;;;;8.27;92.28;98956.87;1591020;88;21063;-71
2022/12/11 02:57:34;;;;;;;87.90;22.73;;;;;;;8.26;92.26;98955.70;1580706;89;21067;-71
2022/12/11 03:00:01;;;;;;;66.85;20.57;;;;;;;8.25;92.25;98948.30;1592520;89;21252;-71
2022/12/11 03:02:28;;;;;;;67.72;19.70;;;;;;;8.27;92.22;98948.14;1586050;88;22310;-71
2022/12/11 03:04:56;;;;;;;96.45;19.17;;;;;;;8.26;92.21;98935.97;1563681;89;21152;-71
2022/12/11 03:07:26;;;;;;;80.35;19.10;;;;;;;8.26;92.21;98939.42;1581273;88;21160;-73
2022/12/11 03:09:53;;;;;;;75.08;19.70;;;;;;;8.25;92.19;98940.89;1582279;89;21116;-72
2022/12/11 03:12:30;;;;;;;61.77;20.37;;;;;;;8.27;92.23;98938.94;1585017;89;21102;-75
2022/12/11 03:14:59;;;;;;;64.35;21.30;;;;;;;8.28;92.25;98936.65;1574653;88;21900;-72
2022/12/11 03:17:49;;;;;;;61.00;21.93;;;;;;;8.28;92.29;98927.45;1584294;89;21147;-72
2022/12/11 03:20:30;;;;;;;62.03;20.77;;;;;;;8.29;92.33;98928.61;1578619;88;21067;-73
2022/12/11 03:23:21;;;;;;;40.00;19.45;;;;;;;8.30;92.38;98925.04;1582081;89;21525;-73
2022/12/11 03:25:57;;;;;;;63.10;18.75;;;;;;;8.33;92.40;98921.28;1574948;89;21194;-72
2022/12/11 03:28:35;;;;;;;54.40;17.07;;;;;;;8.31;92.36;98918.80;1567338;90;22061;-71
2022/12/11 03:31:06;;;;;;;56.73;17.50;;;;;;;8.29;92.35;98920.72;1569542;89;21134;-74
2022/12/11 03:33:41;;;;;;;64.77;17.82;;;;;;;8.29;92.31;98916.77;1568525;89;21566;-71
2022/12/11 03:36:22;;;;;;;55.35;16.97;;;;;;;8.28;92.27;98911.66;1564953;90;21546;-73
2022/12/11 03:38:53;;;;;;;57.90;16.05;;;;;;;8.26;92.25;98910.98;1579864;89;21068;-71
2022/12/11 03:41:21;;;;;;;49.75;16.40;;;;;;;8.24;92.17;98919.51;1557979;89;21879;-71
2022/12/11 03:43:49;;;;;;;55.70;15.63;;;;;;;8.21;92.10;98914.54;1586093;89;21081;-77
2022/12/11 03:46:16;;;;;;;79.95;14.83;;;;;;;8.18;92.04;98905.59;1569290;88;21098;-78
2022/12/11 03:48:43;;;;;;;80.35;15.38;;;;;;;8.15;91.97;98906.72;1578197;89;20968;-72
2022/12/11 03:51:10;;;;;;;91.17;14.87;;;;;;;8.13;91.92;98905.21;1588147;89;21105;-72
2022/12/11 03:53:36;;;;;;;82.08;15.32;;;;;;;8.11;91.90;98894.02;1570780;89;21855;-72
2022/12/11 03:56:04;;;;;;;88.58;15.43;;;;;;;8.08;91.95;98897.73;1583938;89;21088;-74
2022/12/11 03:58:31;;;;;;;107.15;14.95;;;;;;;8.08;91.97;98906.11;1571907;89;21107;-72
2022/12/11 04:00:57;;;;;;;158.10;16.40;;;;;;;8.08;91.93;98903.48;1576800;89;21167;-72
2022/12/11 04:03:24;;;;;;;130.63;15.90;;;;;;;8.07;91.91;98901.83;1589471;88;21067;-72
2022/12/11 04:05:53;;;;;;;123.72;15.80;;;;;;;8.05;91.88;98900.66;1603828;88;21939;-74
2022/12/11 04:08:20;;;;;;;100.47;16.37;;;;;;;8.04;91.87;98901.14;1591807;88;21041;-72
2022/12/11 04:10:47;;;;;;;108.90;18.92;;;;;;;8.04;91.92;98905.09;1586907;89;21049;-73
2022/12/11 04:13:14;;;;;;;72.62;16.62;;;;;;;8.06;92.00;98906.25;1580454;89;21230;-72
2022/12/11 04:15:40;;;;;;;116.65;17.62;;;;;;;8.08;92.14;98908.73;1566892;88;21033;-73
2022/12/11 04:26:20;;;;;;;129.60;16.52;;;;;;;8.16;92.39;98894.40;1571291;88;21503;-79
2022/12/11 04:28:47;;;;;;;88.80;15.83;;;;;;;8.18;92.47;98893.77;1568459;89;21781;-71
2022/12/11 04:31:17;;;;;;;64.30;14.58;;;;;;;8.19;92.50;98894.10;1536436;91;21823;-73
2022/12/11 04:33:45;;;;;;;92.05;16.10;;;;;;;8.21;92.58;98890.38;1573164;89;21071;-72
2022/12/11 04:36:11;;;;;;;43.90;16.00;;;;;;;8.23;92.64;98887.12;1569905;89;21511;-71
2022/12/11 04:38:38;;;;;;;68.15;16.80;;;;;;;8.26;92.73;98888.13;1589282;89;21591;-71
2022/12/11 04:41:08;;;;;;;39.03;17.15;;;;;;;8.28;92.78;98886.18;1595691;88;21111;-70
2022/12/11 04:43:35;;;;;;;37.78;17.48;;;;;;;8.32;92.85;98886.75;1593246;88;21660;-72
2022/12/11 04:46:11;;;;;;;48.95;19.10;;;;;;;8.35;92.93;98875.95;1594812;88;21638;-71
2022/12/11 04:48:38;;;;;;;64.53;22.25;;;;;;;8.39;92.99;98873.85;1574927;89;21091;-71
2022/12/11 04:51:06;;;;;;;54.67;23.80;;;;;;;8.43;93.10;98879.19;1597491;88;21091;-71
2022/12/11 04:53:32;;;;;;;48.95;22.75;;;;;;;8.46;93.18;98876.25;1586141;88;21173;-70
2022/12/11 04:55:59;;;;;;;44.75;23.12;;;;;;;8.48;93.19;98872.50;1584981;88;21839;-71
2022/12/11 04:58:25;;;;;;;45.52;24.00;;;;;;;8.50;93.18;98871.89;1558879;90;21009;-71
2022/12/11 05:00:52;;;;;;;44.05;24.98;;;;;;;8.52;93.18;98867.80;1580126;88;21466;-71
2022/12/11 05:03:19;;;;;;;43.10;25.45;;;;;;;8.54;93.18;98873.73;1582098;88;21246;-71
2022/12/11 05:05:50;;;;;;;45.73;27.58;;;;;;;8.56;93.21;98873.09;1589170;88;21103;-71
2022/12/11 05:08:18;;;;;;;46.88;26.25;;;;;;;8.58;93.24;98864.56;1563657;89;23443;-71
2022/12/11 05:11:02;;;;;;;43.30;28.07;;;;;;;8.62;93.37;98865.94;1599285;88;21102;-71
2022/12/11 05:13:29;;;;;;;40.23;25.68;;;;;;;8.66;93.40;98870.42;1591896;88;21776;-71
2022/12/11 05:15:56;;;;;;;38.23;25.35;;;;;;;8.70;93.50;98858.15;1608256;88;21647;-72
2022/12/11 05:18:23;;;;;;;41.33;25.65;;;;;;;8.74;93.58;98860.81;1592279;88;21445;-72
2022/12/11 05:20:58;;;;;;;34.43;26.35;;;;;;;8.79;93.67;98859.08;1591632;88;22559;-71
2022/12/11 05:23:24;;;;;;;37.13;25.88;;;;;;;8.82;93.69;98842.48;1600936;88;22273;-71
2022/12/11 05:25:54;;;;;;;35.15;25.65;;;;;;;8.84;93.71;98847.11;1599201;88;21494;-71
2022/12/11 05:28:21;;;;;;;34.83;23.95;;;;;;;8.89;93.84;98842.24;1570539;89;21148;-70
2022/12/11 05:30:48;;;;;;;34.73;25.82;;;;;;;8.95;93.91;98846.06;1586080;88;21092;-71
2022/12/11 05:33:14;;;;;;;33.42;27.52;;;;;;;8.98;93.98;98848.42;1618407;88;22071;-71
2022/12/11 05:35:47;;;;;;;37.85;23.95;;;;;;;9.02;94.02;98847.14;1598641;88;21053;-70
2022/12/11 05:38:14;;;;;;;34.50;23.60;;;;;;;9.04;94.09;98847.81;1589110;88;21122;-72
2022/12/11 05:40:41;;;;;;;40.95;24.63;;;;;;;9.10;94.19;98852.48;1584012;88;21512;-71
2022/12/11 05:43:08;;;;;;;36.75;24.80;;;;;;;9.12;94.17;98847.06;1589475;88;21046;-71
2022/12/11 05:45:34;;;;;;;37.80;26.12;;;;;;;9.13;94.19;98849.55;1578916;88;22330;-72
2022/12/11 05:48:01;;;;;;;48.68;27.67;;;;;;;9.16;94.20;98839.19;1602334;88;21280;-71
2022/12/11 05:50:28;;;;;;;46.58;29.80;;;;;;;9.17;94.13;98836.43;1574419;88;21092;-71
2022/12/11 05:52:56;;;;;;;45.80;28.20;;;;;;;9.17;94.07;98830.34;1571884;88;21508;-71
2022/12/11 05:55:23;;;;;;;40.38;26.65;;;;;;;9.15;94.03;98825.20;1599941;88;21061;-72
2022/12/11 05:57:49;;;;;;;40.63;26.75;;;;;;;9.16;93.99;98817.63;1606594;88;22062;-71
2022/12/11 06:00:16;;;;;;;44.70;26.73;;;;;;;9.16;93.95;98825.53;1583298;88;20973;-72
2022/12/11 06:02:43;;;;;;;40.90;23.83;;;;;;;9.16;93.91;98833.92;1551335;89;21169;-71
2022/12/11 06:05:09;;;;;;;37.48;22.45;;;;;;;9.16;93.91;98828.66;1551942;89;21099;-72
2022/12/11 06:07:37;;;;;;;32.53;21.10;;;;;;;9.16;93.89;98826.84;1557786;90;21453;-72
2022/12/11 06:10:05;;;;;;;28.75;18.30;;;;;;;9.14;93.84;98819.59;1540090;90;22833;-72
2022/12/11 06:12:32;;;;;;;26.45;17.37;;;;;;;9.14;93.85;98819.59;1580228;89;21052;-71
2022/12/11 06:14:58;;;;;;;29.72;19.25;;;;;;;9.16;93.89;98825.53;1581114;89;21174;-72
2022/12/11 06:17:25;;;;;;;49.13;18.90;;;;;;;9.16;93.89;98824.21;1579128;87;21759;-71
2022/12/11 06:19:52;;;;;;;40.28;18.92;;;;;;;9.16;93.88;98818.94;1603606;88;21636;-72
2022/12/11 06:22:18;;;;;;;39.38;18.20;;;;;;;9.17;93.85;98823.75;1593851;88;21783;-71
2022/12/11 06:24:45;;;;;;;62.10;17.25;;;;;;;9.16;93.80;98810.22;1583137;87;21176;-71
2022/12/11 06:27:12;;;;;;;38.23;16.97;;;;;;;9.15;93.76;98810.70;1584751;89;21254;-73
2022/12/11 06:29:38;;;;;;;78.52;16.95;;;;;;;9.13;93.71;98808.72;1579892;89;21179;-72
2022/12/11 06:32:05;;;;;;;77.42;17.23;;;;;;;9.12;93.64;98811.02;1554476;90;21103;-75
2022/12/11 06:34:32;;;;;;;152.82;17.50;;;;;;;9.10;93.55;98808.20;1581963;88;21974;-72
2022/12/11 06:36:58;;;;;;;148.05;16.65;;;;;;;9.07;93.44;98801.44;1589505;87;21008;-75
2022/12/11 06:39:25;;;;;;;126.78;16.80;;;;;;;9.04;93.37;98797.77;1583506;88;21037;-76
2022/12/11 06:41:51;;;;;;;166.32;18.32;;;;;;;9.02;93.26;98801.05;1556332;89;21134;-78
2022/12/11 06:44:18;;;;;;;226.58;17.42;;;;;;;8.96;93.17;98792.42;1577669;88;21133;-77
2022/12/11 06:46:45;;;;;;;228.73;17.80;;;;;;;8.92;93.06;98787.13;1576461;89;22518;-79
2022/12/11 06:49:14;;;;;;;256.65;17.50;;;;;;;8.88;93.02;98780.52;1574975;89;21537;-76
2022/12/11 06:51:41;;;;;;;298.30;18.02;;;;;;;8.86;92.98;98775.87;1586316;87;21517;-77
2022/12/11 06:54:07;;;;;;;218.78;16.05;;;;;;;8.84;93.04;98787.05;1570200;88;21230;-79
2022/12/11 06:56:34;;;;;;;227.62;16.75;;;;;;;8.84;93.12;98785.23;1589636;87;21111;-76
2022/12/11 06:59:01;;;;;;;197.00;15.95;;;;;;;8.85;93.14;98792.64;1584110;88;21953;-77
2022/12/11 07:01:27;;;;;;;181.00;15.88;;;;;;;8.84;93.16;98790.99;1585133;87;21060;-76
2022/12/11 07:03:56;;;;;;;214.48;16.32;;;;;;;8.85;93.22;98792.64;1582183;88;21138;-76
2022/12/11 07:06:24;;;;;;;139.00;17.00;;;;;;;8.86;93.23;98781.13;1583419;88;21411;-76
2022/12/11 07:08:50;;;;;;;169.95;18.77;;;;;;;8.86;93.26;98775.87;1585388;88;21517;-77
2022/12/11 07:11:18;;;;;;;95.60;18.07;;;;;;;8.88;93.35;98781.84;1583217;89;21758;-79
2022/12/11 07:13:47;;;;;;;147.43;18.65;;;;;;;8.92;93.45;98779.72;1584422;89;21130;-76
2022/12/11 07:16:15;;;;;;;99.83;17.98;;;;;;;8.95;93.61;98776.28;1581237;89;21008;-76
2022/12/11 07:18:50;;;;;;;64.72;17.98;;;;;;;9.00;93.72;98770.09;1581836;89;21068;-77
2022/12/11 07:21:17;;;;;;;54.35;18.42;;;;;;;9.03;93.76;98773.73;1581895;89;21063;-78
2022/12/11 07:23:44;;;;;;;38.40;19.37;;;;;;;9.08;93.86;98766.70;1582478;89;22543;-78
2022/12/11 07:26:13;;;;;;;37.20;21.50;;;;;;;9.13;94.06;98771.02;1582477;89;21119;-78
2022/12/11 07:28:40;;;;;;;28.25;20.17;;;;;;;9.22;94.30;98770.59;1581449;88;21033;-78
2022/12/11 07:31:09;;;;;;;28.00;20.10;;;;;;;9.30;94.60;98760.13;1584882;89;21125;-78
2022/12/11 07:33:35;;;;;;;23.98;17.27;;;;;;;9.43;94.88;98761.86;1575632;89;21011;-78
2022/12/11 07:36:03;;;;;;;29.37;18.73;;;;;;;9.55;95.21;98761.94;1582581;88;21897;-78
2022/12/11 07:38:30;;;;;;;27.48;19.37;;;;;;;9.72;95.70;98746.56;1580998;89;21103;-78
2022/12/11 07:41:05;;;;;;;31.97;21.45;;;;;;;9.89;96.01;98740.08;1567402;89;21111;-78
2022/12/11 07:43:33;;;;;;;35.85;23.98;;;;;;;10.00;96.22;98735.34;1570557;89;21150;-78
2022/12/11 07:46:05;;;;;;;36.65;21.37;;;;;;;10.12;96.39;98747.75;1583986;89;21024;-78
2022/12/11 07:48:34;;;;;;;25.70;17.57;;;;;;;10.21;96.47;98741.52;1564204;90;22477;-78
2022/12/11 07:51:19;;;;;;;24.30;18.20;;;;;;;10.27;96.48;98749.34;1567834;89;21146;-77
2022/12/11 07:53:48;;;;;;;20.68;14.33;;;;;;;10.36;96.63;98751.03;1579808;89;21016;-77
2022/12/11 07:56:16;;;;;;;22.37;16.25;;;;;;;10.40;96.59;98748.88;1571955;88;21127;-78
2022/12/11 07:58:42;;;;;;;28.12;18.87;;;;;;;10.44;96.61;98746.27;1554913;90;21499;-76
2022/12/11 08:01:22;;;;;;;29.92;21.82;;;;;;;10.48;96.64;98739.67;1580523;89;21920;-78
2022/12/11 08:03:49;;;;;;;27.13;18.35;;;;;;;10.51;96.69;98744.13;1568095;89;21539;-77
2022/12/11 08:06:16;;;;;;;29.35;19.57;;;;;;;10.56;96.70;98743.16;1586347;88;21550;-78
2022/12/11 08:08:43;;;;;;;22.30;18.45;;;;;;;10.60;96.72;98734.41;1573264;89;21111;-78
2022/12/11 08:11:12;;;;;;;30.62;19.32;;;;;;;10.61;96.68;98733.42;1583139;89;21158;-77
2022/12/11 08:13:39;;;;;;;25.75;17.73;;;;;;;10.64;96.63;98733.61;1566437;89;22022;-77
2022/12/11 08:16:08;;;;;;;27.95;18.60;;;;;;;10.65;96.60;98732.12;1562066;88;21138;-77
2022/12/11 08:18:36;;;;;;;21.27;15.83;;;;;;;10.67;96.57;98732.78;1579698;89;21475;-77
2022/12/11 08:21:14;;;;;;;35.60;21.70;;;;;;;10.68;96.55;98727.83;1586499;87;21133;-77
2022/12/11 08:23:41;;;;;;;30.48;21.40;;;;;;;10.71;96.57;98722.25;1582785;89;21106;-76
2022/12/11 08:26:10;;;;;;;36.63;22.82;;;;;;;10.74;96.63;98720.59;1581982;88;21884;-78
2022/12/11 08:28:37;;;;;;;34.83;24.05;;;;;;;10.79;96.71;98714.80;1582973;89;21135;-77
2022/12/11 08:31:07;;;;;;;36.17;25.60;;;;;;;10.82;96.75;98717.14;1576910;89;21129;-77
2022/12/11 08:33:36;;;;;;;42.38;26.77;;;;;;;10.85;96.78;98713.66;1586944;87;21063;-78
2022/12/11 08:36:04;;;;;;;49.50;28.17;;;;;;;10.87;96.77;98708.22;1586921;88;21035;-77
2022/12/11 08:38:33;;;;;;;42.40;27.35;;;;;;;10.91;96.78;98709.55;1584752;88;21869;-77
2022/12/11 08:41:11;;;;;;;55.40;28.02;;;;;;;10.94;96.83;98706.58;1582406;88;21182;-78
2022/12/11 08:43:38;;;;;;;55.73;25.55;;;;;;;10.98;96.87;98700.45;1579732;88;21103;-78
2022/12/11 08:46:05;;;;;;;52.27;25.02;;;;;;;11.05;97.05;98698.31;1578954;89;21108;-78
2022/12/11 08:48:34;;;;;;;54.25;25.95;;;;;;;11.13;97.17;98690.88;1595222;88;21497;-77
2022/12/11 08:51:01;;;;;;;58.15;26.07;;;;;;;11.17;97.16;98688.23;1584328;88;21973;-77
2022/12/11 08:53:31;;;;;;;54.63;24.77;;;;;;;11.20;97.19;98686.59;1560511;90;21226;-77
2022/12/11 08:56:08;;;;;;;61.33;26.17;;;;;;;11.26;97.18;98688.55;1573978;88;21138;-77
2022/12/11 08:58:36;;;;;;;78.12;28.90;;;;;;;11.29;97.17;98680.30;1592322;88;21153;-77
2022/12/11 09:01:09;;;;;;;80.45;29.30;;;;;;;11.29;97.12;98680.30;1601073;88;21178;-77
2022/12/11 09:03:36;;;;;;;65.65;27.77;;;;;;;11.33;97.14;98677.64;1591806;88;21960;-77
2022/12/11 09:06:09;;;;;;;50.00;23.62;;;;;;;11.36;97.08;98668.55;1572592;89;21781;-76
2022/12/11 09:08:36;;;;;;;44.60;23.80;;;;;;;11.39;96.99;98669.55;1571062;89;20933;-76
2022/12/11 09:11:06;;;;;;;46.30;25.37;;;;;;;11.39;96.95;98663.77;1568216;89;21547;-77
2022/12/11 09:13:33;;;;;;;43.52;22.60;;;;;;;11.42;96.87;98652.84;1581755;89;21635;-76
2022/12/11 09:16:00;;;;;;;42.27;21.77;;;;;;;11.44;96.81;98661.92;1601362;88;22013;-77
2022/12/11 09:18:27;;;;;;;45.33;24.67;;;;;;;11.45;96.80;98641.09;1591804;88;21131;-77
2022/12/11 09:21:00;;;;;;;41.15;24.18;;;;;;;11.49;96.83;98645.56;1567457;88;21559;-76
2022/12/11 09:23:27;;;;;;;41.70;22.87;;;;;;;11.51;96.78;98648.36;1579635;88;21182;-77
2022/12/11 09:25:53;;;;;;;40.95;22.60;;;;;;;11.51;96.65;98648.36;1586345;88;20981;-77
2022/12/11 09:28:20;;;;;;;37.95;24.25;;;;;;;11.52;96.57;98650.51;1591510;88;21837;-77
2022/12/11 09:30:46;;;;;;;40.98;21.00;;;;;;;11.52;96.55;98636.78;1597667;89;21024;-76
2022/12/11 09:33:13;;;;;;;37.83;20.72;;;;;;;11.54;96.56;98625.54;1585622;88;21010;-77
2022/12/11 09:35:40;;;;;;;41.08;23.18;;;;;;;11.56;96.46;98633.30;1562817;90;21076;-76
2022/12/11 09:38:07;;;;;;;45.88;24.57;;;;;;;11.56;96.37;98629.33;1594896;88;21226;-77
2022/12/11 09:40:33;;;;;;;41.33;21.35;;;;;;;11.57;96.32;98633.62;1596596;88;22473;-75
2022/12/11 09:43:08;;;;;;;49.20;23.05;;;;;;;11.57;96.21;98617.75;1578210;88;21221;-77
2022/12/11 09:45:36;;;;;;;49.93;22.17;;;;;;;11.59;96.22;98615.29;1590904;89;21197;-76
2022/12/11 09:48:03;;;;;;;63.75;23.27;;;;;;;11.62;96.22;98612.29;1580588;88;21069;-76
2022/12/11 09:50:33;;;;;;;60.70;23.95;;;;;;;11.65;96.19;98616.41;1575571;88;21155;-76
2022/12/11 09:53:26;;;;;;;62.23;24.35;;;;;;;11.67;96.08;98611.77;1587773;88;21846;-77
2022/12/11 09:56:28;;;;;;;57.03;23.60;;;;;;;11.69;96.00;98607.15;1590763;89;21097;-76
2022/12/11 09:59:15;;;;;;;65.70;25.52;;;;;;;11.71;95.96;98612.59;1586795;88;21561;-76
2022/12/11 10:02:22;;;;;;;52.90;23.32;;;;;;;11.73;95.83;98601.33;1582379;88;21066;-76
2022/12/11 10:04:58;;;;;;;59.53;24.02;;;;;;;11.75;95.67;98585.28;1599467;88;21191;-76
2022/12/11 10:07:39;;;;;;;60.48;23.62;;;;;;;11.78;95.54;98586.78;1559046;89;21917;-76
2022/12/11 10:10:39;;;;;;;73.60;25.55;;;;;;;11.79;95.45;98579.17;1585017;89;21080;-78
2022/12/11 10:13:17;;;;;;;62.90;25.92;;;;;;;11.80;95.32;98575.55;1572284;88;21108;-74
2022/12/11 10:15:55;;;;;;;55.03;22.27;;;;;;;11.80;95.17;98571.09;1603915;87;21116;-75
2022/12/11 10:18:24;;;;;;;47.62;20.35;;;;;;;11.81;95.03;98567.44;1579404;88;21091;-78
2022/12/11 10:20:52;;;;;;;45.88;21.52;;;;;;;11.82;94.95;98551.89;1558769;89;22579;-76
2022/12/11 10:23:27;;;;;;;38.65;20.90;;;;;;;11.81;94.82;98558.69;1561640;90;21059;-75
2022/12/11 10:26:05;;;;;;;32.50;17.77;;;;;;;11.81;94.69;98546.28;1578510;88;21091;-74
2022/12/11 10:28:31;;;;;;;35.25;18.82;;;;;;;11.81;94.55;98551.57;1579110;88;21136;-74
2022/12/11 10:31:26;;;;;;;32.95;18.32;;;;;;;11.82;94.40;98540.48;1563084;89;21170;-74
2022/12/11 10:34:05;;;;;;;28.85;17.20;;;;;;;11.82;94.33;98536.52;1564426;89;22059;-77
2022/12/11 10:36:40;;;;;;;38.67;21.82;;;;;;;11.81;94.14;98531.73;1581502;88;21392;-71
2022/12/11 10:39:13;;;;;;;58.20;25.72;;;;;;;11.80;94.06;98534.56;1582443;89;21095;-69
2022/12/11 10:41:46;;;;;;;48.78;25.05;;;;;;;11.79;93.99;98523.13;1591199;88;21070;-67
2022/12/11 10:44:29;;;;;;;43.80;24.37;;;;;;;11.79;93.90;98515.19;1547726;90;21142;-78
2022/12/11 10:47:14;;;;;;;35.45;23.47;;;;;;;11.79;93.82;98512.54;1582183;88;22290;-72
2022/12/11 10:49:55;;;;;;;45.50;24.20;;;;;;;11.80;93.76;98514.22;1595161;87;21091;-73
2022/12/11 10:52:26;;;;;;;35.92;22.17;;;;;;;11.82;93.76;98510.89;1568452;87;21606;-78
2022/12/11 10:55:01;;;;;;;32.90;20.37;;;;;;;11.83;93.67;98495.84;1570456;89;21064;-74
2022/12/11 10:57:33;;;;;;;40.92;22.70;;;;;;;11.84;93.62;98496.16;1559866;89;21153;-74
2022/12/11 11:00:36;;;;;;;35.15;20.70;;;;;;;11.84;93.54;98492.20;1553825;90;21973;-74
2022/12/11 11:03:22;;;;;;;31.87;17.32;;;;;;;11.84;93.42;98496.98;1562154;88;21581;-74
2022/12/11 11:05:49;;;;;;;29.23;18.30;;;;;;;11.81;93.23;98482.80;1573908;89;21114;-72
2022/12/11 11:08:20;;;;;;;26.30;17.77;;;;;;;11.80;93.18;98485.13;1592237;88;21127;-72
2022/12/11 11:10:58;;;;;;;34.00;18.73;;;;;;;11.80;93.14;98477.69;1592495;88;21201;-71
2022/12/11 11:13:29;;;;;;;36.85;18.15;;;;;;;11.80;93.09;98472.40;1590029;88;21862;-72
2022/12/11 11:16:03;;;;;;;29.65;18.65;;;;;;;11.80;93.05;98472.40;1584599;88;21104;-71
2022/12/11 11:18:30;;;;;;;24.80;15.45;;;;;;;11.81;92.99;98457.67;1594099;88;21198;-71
2022/12/11 11:20:56;;;;;;;27.10;15.03;;;;;;;11.83;92.93;98458.81;1569126;87;21122;-75
2022/12/11 11:23:23;;;;;;;26.27;14.43;;;;;;;11.83;92.87;98462.78;1580491;88;21593;-74
2022/12/11 11:25:57;;;;;;;22.15;13.98;;;;;;;11.81;92.70;98462.96;1587071;88;22765;-74
2022/12/11 11:28:36;;;;;;;19.45;12.88;;;;;;;11.80;92.58;98457.84;1585430;88;21506;-73
2022/12/11 11:31:07;;;;;;;20.85;14.53;;;;;;;11.77;92.50;98447.06;1578381;88;21601;-71
2022/12/11 11:33:35;;;;;;;27.98;14.68;;;;;;;11.76;92.42;98452.04;1569449;88;21072;-72
2022/12/11 11:36:05;;;;;;;38.30;17.90;;;;;;;11.75;92.36;98450.39;1564718;89;21154;-72
2022/12/11 11:38:45;;;;;;;35.35;16.07;;;;;;;11.74;92.29;98444.78;1568949;89;21992;-77
2022/12/11 11:41:22;;;;;;;25.60;14.28;;;;;;;11.74;92.25;98448.75;1547411;90;21119;-73
2022/12/11 11:43:52;;;;;;;34.13;16.77;;;;;;;11.72;92.19;98434.89;1546427;90;21104;-73
2022/12/11 11:46:26;;;;;;;30.30;14.95;;;;;;;11.73;92.16;98438.67;1567715;88;21155;-72